createdAt,value
2018-04-07T00:01:48.115Z,90.00
2018-04-07T00:04:16.912Z,90.00
2018-04-07T00:06:45.764Z,90.30
2018-04-07T00:09:13.852Z,90.30
2018-04-07T00:11:41.947Z,90.10
2018-04-07T00:14:11.074Z,90.50
2018-04-07T00:16:39.147Z,90.40
2018-04-07T00:19:07.433Z,90.60
2018-04-07T00:21:35.522Z,91.70
2018-04-07T00:24:03.652Z,90.90
2018-04-07T00:26:34.224Z,91.20
2018-04-07T00:29:02.303Z,90.90
2018-04-07T00:31:30.627Z,91.50
2018-04-07T00:33:58.818Z,91.40
2018-04-07T00:36:27.016Z,92.20
2018-04-07T00:38:55.139Z,91.60
2018-04-07T00:41:24.997Z,91.60
2018-04-07T00:43:53.832Z,91.60
2018-04-07T00:46:22.689Z,92.10
2018-04-07T00:48:50.794Z,92.10
2018-04-07T00:51:18.873Z,91.80
2018-04-07T00:53:46.970Z,92.10
2018-04-07T00:56:15.059Z,93.00
2018-04-07T00:58:43.363Z,92.90
2018-04-07T01:01:11.476Z,92.60
2018-04-07T01:03:40.336Z,92.10
2018-04-07T01:06:08.776Z,92.10
2018-04-07T01:08:36.875Z,92.40
2018-04-07T01:11:04.972Z,92.40
2018-04-07T01:13:33.651Z,92.90
2018-04-07T01:16:02.336Z,92.70
2018-04-07T01:18:30.483Z,93.30
2018-04-07T01:20:58.607Z,93.50
2018-04-07T01:23:27.477Z,94.40
2018-04-07T01:25:56.676Z,94.20
2018-04-07T01:28:25.779Z,94.20
2018-04-07T01:30:54.640Z,94.20
2018-04-07T01:33:23.243Z,94.20
2018-04-07T01:35:51.854Z,94.40
2018-04-07T01:38:20.913Z,94.90
2018-04-07T01:40:49.068Z,95.00
2018-04-07T01:43:17.176Z,95.50
2018-04-07T01:45:45.263Z,95.20
2018-04-07T01:48:14.135Z,95.50
2018-04-07T01:50:43.779Z,95.40
2018-04-07T01:53:11.975Z,95.50
2018-04-07T01:55:40.060Z,95.60
2018-04-07T01:58:08.146Z,95.70
2018-04-07T02:00:37.553Z,95.50
2018-04-07T02:03:05.834Z,95.50
2018-04-07T02:05:35.004Z,95.90
2018-04-07T02:08:04.047Z,96.10
2018-04-07T02:10:32.224Z,96.90
2018-04-07T02:13:00.315Z,96.80
2018-04-07T02:15:28.395Z,96.30
2018-04-07T02:17:56.496Z,96.80
2018-04-07T02:20:24.573Z,97.10
2018-04-07T02:22:53.160Z,96.80
2018-04-07T02:25:21.226Z,97.10
2018-04-07T02:27:49.314Z,97.50
2018-04-07T02:30:17.387Z,97.00
2018-04-07T02:32:46.236Z,97.30
2018-04-07T02:35:16.702Z,97.60
2018-04-07T02:37:44.776Z,97.50
2018-04-07T02:40:12.863Z,98.10
2018-04-07T02:42:41.815Z,98.20
2018-04-07T02:45:09.925Z,98.10
2018-04-07T02:47:38.000Z,98.40
2018-04-07T02:50:06.176Z,98.80
2018-04-07T02:52:35.046Z,98.50
2018-04-07T02:55:03.138Z,98.40
2018-04-07T02:57:31.265Z,98.30
2018-04-07T02:59:59.341Z,98.50
2018-04-07T03:02:27.453Z,98.50
2018-04-07T03:04:55.814Z,98.50
2018-04-07T03:07:24.221Z,98.80
2018-04-07T03:09:53.179Z,98.30
2018-04-07T03:12:21.265Z,98.30
2018-04-07T03:14:49.355Z,98.90
2018-04-07T03:17:18.211Z,99.80
2018-04-07T03:19:46.305Z,99.60
2018-04-07T03:22:18.082Z,99.90
2018-04-07T03:24:46.190Z,99.30
2018-04-07T03:27:14.475Z,99.50
2018-04-07T03:29:42.557Z,99.80
2018-04-07T03:32:10.648Z,99.90
2018-04-07T03:34:38.725Z,99.60
2018-04-07T03:37:06.812Z,99.90
2018-04-07T03:39:36.881Z,99.90
2018-04-07T03:42:04.958Z,99.90
2018-04-07T03:44:33.027Z,99.90
2018-04-07T03:47:01.112Z,99.90
2018-04-07T03:49:29.330Z,99.90
2018-04-07T03:51:58.474Z,99.90
2018-04-07T03:54:26.554Z,99.90
2018-04-07T03:56:54.632Z,99.90
2018-04-07T03:59:22.710Z,99.90
2018-04-07T04:01:50.797Z,99.90
2018-04-07T04:04:18.886Z,99.90
2018-04-07T04:06:48.251Z,99.90
2018-04-07T04:09:16.348Z,99.90
2018-04-07T04:11:44.415Z,99.90
2018-04-07T04:14:12.502Z,99.90
2018-04-07T04:16:41.491Z,99.90
2018-04-07T04:19:09.966Z,99.90
2018-04-07T04:21:38.850Z,99.90
2018-04-07T04:24:07.091Z,99.90
2018-04-07T04:26:36.092Z,99.90
2018-04-07T04:29:04.200Z,99.90
2018-04-07T04:31:32.286Z,99.90
2018-04-07T04:34:01.667Z,99.90
2018-04-07T04:36:29.785Z,99.90
2018-04-07T04:38:57.827Z,99.90
2018-04-07T04:41:25.923Z,99.90
2018-04-07T04:50:41.119Z,99.90
2018-04-07T04:53:09.186Z,99.90
2018-04-07T04:55:37.307Z,99.90
2018-04-07T04:58:05.574Z,99.90
2018-04-07T05:00:34.055Z,99.90
2018-04-07T05:03:02.899Z,99.90
2018-04-07T05:05:31.756Z,99.90
2018-04-07T05:07:59.836Z,99.90
2018-04-07T05:10:27.939Z,99.90
2018-04-07T05:12:56.106Z,99.90
2018-04-07T05:15:24.204Z,99.90
2018-04-07T05:17:53.328Z,99.90
2018-04-07T05:20:22.167Z,99.90
2018-04-07T05:22:50.999Z,99.90
2018-04-07T05:25:19.072Z,99.90
2018-04-07T05:27:47.162Z,99.90
2018-04-07T05:30:15.240Z,99.90
2018-04-07T05:32:43.327Z,99.90
2018-04-07T05:35:11.402Z,99.90
2018-04-07T05:37:39.487Z,99.90
2018-04-07T05:40:08.375Z,99.90
2018-04-07T05:45:09.849Z,99.90
2018-04-07T05:47:37.945Z,99.90
2018-04-07T05:50:06.022Z,99.90
2018-04-07T05:52:35.300Z,99.90
2018-04-07T05:55:03.402Z,99.90
2018-04-07T05:57:32.920Z,99.90
2018-04-07T06:00:01.007Z,99.90
2018-04-07T06:02:29.091Z,99.90
2018-04-07T06:04:57.190Z,99.90
2018-04-07T06:07:25.283Z,99.90
2018-04-07T06:09:53.444Z,99.90
2018-04-07T06:12:22.306Z,99.90
2018-04-07T06:14:50.403Z,99.90
2018-04-07T06:17:18.483Z,99.90
2018-04-07T06:19:46.652Z,99.90
2018-04-07T06:22:16.564Z,99.90
2018-04-07T06:24:45.779Z,99.90
2018-04-07T06:27:13.896Z,99.90
2018-04-07T06:29:41.984Z,99.90
2018-04-07T06:32:10.096Z,99.90
2018-04-07T06:34:38.184Z,99.90
2018-04-07T06:37:06.312Z,99.90
2018-04-07T06:39:34.387Z,99.90
2018-04-07T06:42:02.557Z,99.90
2018-04-07T06:44:30.614Z,99.90
2018-04-07T06:46:58.703Z,99.90
2018-04-07T06:49:26.804Z,99.90
2018-04-07T06:51:54.883Z,99.90
2018-04-07T06:54:24.061Z,99.90
2018-04-07T06:56:52.155Z,99.90
2018-04-07T06:59:21.011Z,99.90
2018-04-07T07:01:49.114Z,99.90
2018-04-07T07:04:17.234Z,99.90
2018-04-07T07:06:45.341Z,99.90
2018-04-07T07:09:13.595Z,99.90
2018-04-07T07:11:41.711Z,99.90
2018-04-07T07:14:09.786Z,99.90
2018-04-07T07:16:37.922Z,99.90
2018-04-07T07:19:06.051Z,99.90
2018-04-07T07:21:34.158Z,99.90
2018-04-07T07:24:02.261Z,99.90
2018-04-07T07:26:38.273Z,99.90
2018-04-07T07:29:06.353Z,99.90
2018-04-07T07:31:35.260Z,99.90
2018-04-07T07:34:03.371Z,99.90
2018-04-07T07:36:31.477Z,99.90
2018-04-07T07:38:59.590Z,99.90
2018-04-07T07:41:27.671Z,99.90
2018-04-07T07:43:55.817Z,99.90
2018-04-07T07:46:23.912Z,99.90
2018-04-07T07:48:52.784Z,99.90
2018-04-07T07:51:23.946Z,99.90
2018-04-07T07:53:52.856Z,99.90
2018-04-07T07:56:20.939Z,99.90
2018-04-07T07:58:49.959Z,99.90
2018-04-07T08:01:18.040Z,99.90
2018-04-07T08:03:47.190Z,99.70
2018-04-07T08:06:15.629Z,99.90
2018-04-07T08:08:43.780Z,99.80
2018-04-07T08:11:11.885Z,99.80
2018-04-07T08:13:40.757Z,99.10
2018-04-07T08:16:08.867Z,99.10
2018-04-07T08:18:36.994Z,99.70
2018-04-07T08:21:05.083Z,99.30
2018-04-07T08:23:33.186Z,99.70
2018-04-07T08:26:01.584Z,99.20
2018-04-07T08:28:29.678Z,98.50
2018-04-07T08:30:57.947Z,98.80
2018-04-07T08:33:26.071Z,98.90
2018-04-07T08:35:54.138Z,98.90
2018-04-07T08:38:24.496Z,97.60
2018-04-07T08:40:52.607Z,97.60
2018-04-07T08:43:20.704Z,98.30
2018-04-07T08:45:49.868Z,98.20
2018-04-07T08:48:18.888Z,98.20
2018-04-07T08:50:47.520Z,97.00
2018-04-07T08:53:16.382Z,97.90
2018-04-07T08:55:45.405Z,97.20
2018-04-07T08:58:14.267Z,96.40
2018-04-07T09:00:43.311Z,95.90
2018-04-07T09:03:11.426Z,95.80
2018-04-07T09:05:40.311Z,95.80
2018-04-07T09:08:08.482Z,95.80
2018-04-07T09:10:38.099Z,95.50
2018-04-07T09:13:06.416Z,95.40
2018-04-07T09:15:34.495Z,95.70
2018-04-07T09:18:02.654Z,95.50
2018-04-07T09:20:30.775Z,94.30
2018-04-07T09:22:59.210Z,94.50
2018-04-07T09:25:27.660Z,94.60
2018-04-07T09:27:56.038Z,94.50
2018-04-07T09:30:24.116Z,93.50
2018-04-07T09:32:52.999Z,93.70
2018-04-07T09:35:21.872Z,93.60
2018-04-07T09:37:49.979Z,93.60
2018-04-07T09:40:18.380Z,93.50
2018-04-07T09:42:46.990Z,93.10
2018-04-07T09:45:15.097Z,94.10
2018-04-07T09:47:43.184Z,93.60
2018-04-07T09:50:11.602Z,93.80
2018-04-07T09:52:39.683Z,93.90
2018-04-07T09:55:08.728Z,92.70
2018-04-07T09:57:36.821Z,92.50
2018-04-07T10:00:04.934Z,92.80
2018-04-07T10:02:36.000Z,92.20
2018-04-07T10:05:04.560Z,92.20
2018-04-07T10:07:33.023Z,92.70
2018-04-07T10:10:01.103Z,91.40
2018-04-07T10:12:29.227Z,91.30
2018-04-07T10:14:57.384Z,91.90
2018-04-07T10:17:25.496Z,91.40
2018-04-07T10:19:53.709Z,91.20
2018-04-07T10:22:21.808Z,90.40
2018-04-07T10:24:49.920Z,91.50
2018-04-07T10:27:18.119Z,90.70
2018-04-07T10:29:46.214Z,90.30
2018-04-07T10:32:14.356Z,90.00
2018-04-07T10:34:42.460Z,90.50
2018-04-07T10:37:10.538Z,90.40
2018-04-07T10:39:38.650Z,90.60
2018-04-07T10:42:06.760Z,90.40
2018-04-07T10:44:34.851Z,90.90
2018-04-07T10:47:02.992Z,90.70
2018-04-07T10:49:31.092Z,90.80
2018-04-07T10:51:59.224Z,89.50
2018-04-07T10:54:28.184Z,89.40
2018-04-07T10:56:56.269Z,89.20
2018-04-07T10:59:24.436Z,88.20
2018-04-07T11:01:52.549Z,87.60
2018-04-07T11:04:20.636Z,83.20
2018-04-07T11:06:48.716Z,84.00
2018-04-07T11:09:16.815Z,83.40
2018-04-07T11:11:44.906Z,84.70
2018-04-07T11:14:13.008Z,83.90
2018-04-07T11:16:41.104Z,83.20
2018-04-07T11:19:09.215Z,81.90
2018-04-07T11:21:37.307Z,81.90
2018-04-07T11:24:06.166Z,80.70
2018-04-07T11:26:34.310Z,80.70
2018-04-07T11:29:05.296Z,78.90
2018-04-07T11:31:33.472Z,79.20
2018-04-07T11:34:01.562Z,82.30
2018-04-07T11:36:29.667Z,78.70
2018-04-07T11:38:57.748Z,79.60
2018-04-07T11:41:25.837Z,79.10
2018-04-07T11:43:53.929Z,78.60
2018-04-07T11:46:24.589Z,77.80
2018-04-07T11:48:54.432Z,77.80
2018-04-07T11:51:24.501Z,76.60
2018-04-07T11:53:52.605Z,76.00
2018-04-07T11:56:20.701Z,77.00
2018-04-07T11:58:48.792Z,77.70
2018-04-07T12:01:16.886Z,76.10
2018-04-07T12:03:45.962Z,75.50
2018-04-07T12:06:15.764Z,77.70
2018-04-07T12:08:43.882Z,77.70
2018-04-07T12:11:12.008Z,75.00
2018-04-07T12:13:40.144Z,74.50
2018-04-07T12:16:09.055Z,73.40
2018-04-07T12:18:38.074Z,75.20
2018-04-07T12:21:06.228Z,75.00
2018-04-07T12:23:34.328Z,74.70
2018-04-07T12:26:02.476Z,73.10
2018-04-07T12:28:31.346Z,71.70
2018-04-07T12:30:59.452Z,71.70
2018-04-07T12:33:27.533Z,71.80
2018-04-07T12:35:55.650Z,70.60
2018-04-07T12:38:23.745Z,69.90
2018-04-07T12:40:51.835Z,70.20
2018-04-07T12:43:19.951Z,67.80
2018-04-07T12:45:48.059Z,68.50
2018-04-07T12:48:16.771Z,69.70
2018-04-07T12:50:44.870Z,64.90
2018-04-07T12:53:12.989Z,64.30
2018-04-07T12:55:41.067Z,66.10
2018-04-07T12:58:09.478Z,63.90
2018-04-07T13:00:38.336Z,62.40
2018-04-07T13:03:06.438Z,62.50
2018-04-07T13:05:35.297Z,60.70
2018-04-07T13:08:03.374Z,60.60
2018-04-07T13:10:31.475Z,60.90
2018-04-07T13:13:00.348Z,62.20
2018-04-07T13:15:29.470Z,62.20
2018-04-07T13:17:58.334Z,64.40
2018-04-07T13:20:26.481Z,64.40
2018-04-07T13:22:54.571Z,59.60
2018-04-07T13:25:24.040Z,59.70
2018-04-07T13:27:52.880Z,58.40
2018-04-07T13:30:20.968Z,58.30
2018-04-07T13:32:49.071Z,58.30
2018-04-07T13:35:17.759Z,60.70
2018-04-07T13:37:45.861Z,57.10
2018-04-07T13:40:13.956Z,57.70
2018-04-07T13:42:42.083Z,58.90
2018-04-07T13:45:10.184Z,58.70
2018-04-07T13:47:38.261Z,57.30
2018-04-07T13:50:06.366Z,58.00
2018-04-07T13:52:36.335Z,57.30
2018-04-07T13:55:05.371Z,56.90
2018-04-07T13:57:36.322Z,56.10
2018-04-07T14:00:06.174Z,57.40
2018-04-07T14:02:34.276Z,57.40
2018-04-07T14:05:02.357Z,55.80
2018-04-07T14:07:31.231Z,58.60
2018-04-07T14:09:59.324Z,58.60
2018-04-07T14:12:28.073Z,57.80
2018-04-07T14:14:56.159Z,57.10
2018-04-07T14:17:24.617Z,55.40
2018-04-07T14:19:52.711Z,58.00
2018-04-07T14:22:20.806Z,58.50
2018-04-07T14:24:49.770Z,55.60
2018-04-07T14:27:17.900Z,56.20
2018-04-07T14:29:46.003Z,56.80
2018-04-07T14:32:14.100Z,56.10
2018-04-07T14:34:42.191Z,56.70
2018-04-07T14:37:11.058Z,56.80
2018-04-07T14:39:39.139Z,56.80
2018-04-07T14:42:07.264Z,55.80
2018-04-07T14:44:35.375Z,54.90
2018-04-07T14:47:03.487Z,55.30
2018-04-07T14:49:32.370Z,53.90
2018-04-07T14:52:00.472Z,54.00
2018-04-07T14:54:28.575Z,53.60
2018-04-07T14:56:56.655Z,54.90
2018-04-07T14:59:24.755Z,54.60
2018-04-07T15:01:53.610Z,55.10
2018-04-07T15:04:21.704Z,55.00
2018-04-07T15:06:49.799Z,54.50
2018-04-07T15:09:18.655Z,54.70
2018-04-07T15:11:46.755Z,54.70
2018-04-07T15:14:14.860Z,55.20
2018-04-07T15:16:42.974Z,55.40
2018-04-07T15:19:11.383Z,55.30
2018-04-07T15:21:40.788Z,54.70
2018-04-07T15:24:08.967Z,54.70
2018-04-07T15:26:37.083Z,54.50
2018-04-07T15:29:05.173Z,55.50
2018-04-07T15:31:33.546Z,54.40
2018-04-07T15:34:01.624Z,55.50
2018-04-07T15:36:29.706Z,54.30
2018-04-07T15:38:58.735Z,55.60
2018-04-07T15:41:26.941Z,53.60
2018-04-07T15:43:55.050Z,53.40
2018-04-07T15:46:23.141Z,54.30
2018-04-07T15:48:51.241Z,54.60
2018-04-07T15:51:19.329Z,63.20
2018-04-07T15:53:47.436Z,56.90
2018-04-07T15:56:15.547Z,55.40
2018-04-07T15:58:43.655Z,57.60
2018-04-07T16:01:11.740Z,60.90
2018-04-07T16:03:39.836Z,58.40
2018-04-07T16:06:07.947Z,57.40
2018-04-07T16:08:36.063Z,58.10
2018-04-07T16:11:04.163Z,57.40
2018-04-07T16:13:33.175Z,57.10
2018-04-07T16:16:01.273Z,57.10
2018-04-07T16:18:29.583Z,55.50
2018-04-07T16:20:58.533Z,55.00
2018-04-07T16:23:27.481Z,55.20
2018-04-07T16:25:55.701Z,54.10
2018-04-07T16:28:23.932Z,55.20
2018-04-07T16:30:52.956Z,54.00
2018-04-07T16:33:22.039Z,53.90
2018-04-07T16:35:50.195Z,55.50
2018-04-07T16:40:55.250Z,57.50
2018-04-07T16:43:24.153Z,57.50
2018-04-07T16:45:52.523Z,57.40
2018-04-07T16:48:21.407Z,57.20
2018-04-07T16:50:49.892Z,57.20
2018-04-07T16:53:18.826Z,60.60
2018-04-07T16:55:46.946Z,60.60
2018-04-07T16:58:15.085Z,59.50
2018-04-07T17:00:43.741Z,60.60
2018-04-07T17:03:11.826Z,55.30
2018-04-07T17:05:40.782Z,58.50
2018-04-07T17:08:08.891Z,61.10
2018-04-07T17:10:36.991Z,58.80
2018-04-07T17:13:05.086Z,58.30
2018-04-07T17:15:34.868Z,57.70
2018-04-07T17:18:02.999Z,58.20
2018-04-07T17:20:31.109Z,63.20
2018-04-07T17:22:59.438Z,57.70
2018-04-07T17:25:28.367Z,56.50
2018-04-07T17:27:57.191Z,56.50
2018-04-07T17:30:25.283Z,58.00
2018-04-07T17:32:54.181Z,59.80
2018-04-07T17:35:25.956Z,59.80
2018-04-07T17:37:55.061Z,60.90
2018-04-07T17:40:23.294Z,64.60
2018-04-07T17:42:51.391Z,64.40
2018-04-07T17:45:20.443Z,62.70
2018-04-07T17:47:50.390Z,58.30
2018-04-07T17:50:19.033Z,59.50
2018-04-07T17:52:49.213Z,61.30
2018-04-07T17:55:18.249Z,58.70
2018-04-07T17:57:46.560Z,58.70
2018-04-07T18:00:14.726Z,61.30
2018-04-07T18:02:43.438Z,60.20
2018-04-07T18:05:11.619Z,61.40
2018-04-07T18:07:39.777Z,62.50
2018-04-07T18:10:08.863Z,60.90
2018-04-07T18:12:36.964Z,63.00
2018-04-07T18:15:05.087Z,64.70
2018-04-07T18:17:33.466Z,66.00
2018-04-07T18:20:01.677Z,65.00
2018-04-07T18:22:30.829Z,65.00
2018-04-07T18:24:59.303Z,65.00
2018-04-07T18:27:27.422Z,62.80
2018-04-07T18:29:56.145Z,62.90
2018-04-07T18:32:25.215Z,65.50
2018-04-07T18:34:54.267Z,64.30
2018-04-07T18:37:22.483Z,64.30
2018-04-07T18:39:52.227Z,67.30
2018-04-07T18:42:20.329Z,67.10
2018-04-07T18:44:48.535Z,68.50
2018-04-07T18:47:17.932Z,70.20
2018-04-07T18:49:46.826Z,70.20
2018-04-07T18:52:15.000Z,70.10
2018-04-07T18:54:43.203Z,70.20
2018-04-07T18:57:11.284Z,69.40
2018-04-07T18:59:40.028Z,70.60
2018-04-07T19:02:10.327Z,73.00
2018-04-07T19:04:38.456Z,73.00
2018-04-07T19:07:06.595Z,73.60
2018-04-07T19:09:34.742Z,73.50
2018-04-07T19:12:02.972Z,73.30
2018-04-07T19:14:31.135Z,74.80
2018-04-07T19:17:00.098Z,76.10
2018-04-07T19:19:32.469Z,75.90
2018-04-07T19:22:00.680Z,77.80
2018-04-07T19:24:29.649Z,76.70
2018-04-07T19:26:57.765Z,76.70
2018-04-07T19:29:26.171Z,77.30
2018-04-07T19:31:54.282Z,78.00
2018-04-07T19:34:22.488Z,79.00
2018-04-07T19:36:51.579Z,79.70
2018-04-07T19:39:20.204Z,81.00
2018-04-07T19:41:48.409Z,82.90
2018-04-07T19:44:16.543Z,84.30
2018-04-07T19:46:44.701Z,82.60
2018-04-07T19:49:13.208Z,82.90
2018-04-07T19:51:41.371Z,86.90
2018-04-07T19:54:11.912Z,83.40
2018-04-07T19:56:40.946Z,86.40
2018-04-07T19:59:10.006Z,88.90
2018-04-07T20:01:38.411Z,88.20
2018-04-07T20:04:06.624Z,88.90
2018-04-07T20:06:34.784Z,91.40
2018-04-07T20:09:02.959Z,92.30
2018-04-07T20:11:32.066Z,92.00
2018-04-07T20:14:00.176Z,92.70
2018-04-07T20:16:29.463Z,94.00
2018-04-07T20:18:57.587Z,93.40
2018-04-07T20:21:26.437Z,92.80
2018-04-07T20:23:54.665Z,93.40
2018-04-07T20:26:22.824Z,93.60
2018-04-07T20:28:51.737Z,95.00
2018-04-07T20:31:19.861Z,95.00
2018-04-07T20:33:48.520Z,95.90
2018-04-07T20:36:16.649Z,96.30
2018-04-07T20:38:45.648Z,97.80
2018-04-07T20:41:14.513Z,99.90
2018-04-07T20:43:43.865Z,99.90
2018-04-07T20:46:14.009Z,99.90
2018-04-07T20:48:42.236Z,99.90
2018-04-07T20:51:11.613Z,99.90
2018-04-07T20:53:39.719Z,99.90
2018-04-07T20:56:07.966Z,99.60
2018-04-07T20:58:37.111Z,99.90
2018-04-07T21:01:05.266Z,99.90
2018-04-07T21:03:34.118Z,99.90
2018-04-07T21:06:03.173Z,99.90
2018-04-07T21:08:31.328Z,99.90
2018-04-07T21:11:00.187Z,99.90
2018-04-07T21:13:28.377Z,99.90
2018-04-07T21:15:57.288Z,99.90
2018-04-07T21:18:25.433Z,99.90
2018-04-07T21:20:54.433Z,99.90
2018-04-07T21:23:23.323Z,99.90
2018-04-07T21:25:52.226Z,99.90
2018-04-07T21:28:21.092Z,99.90
2018-04-07T21:30:50.035Z,99.90
2018-04-07T21:33:20.301Z,99.90
2018-04-07T21:35:48.387Z,99.90
2018-04-07T21:38:16.500Z,99.90
2018-04-07T21:40:44.947Z,99.90
2018-04-07T21:43:14.902Z,99.90
2018-04-07T21:45:44.835Z,99.90
2018-04-07T21:48:12.968Z,99.90
2018-04-07T21:50:41.819Z,99.90
2018-04-07T21:53:09.909Z,99.90
2018-04-07T21:55:38.156Z,99.90
2018-04-07T21:58:06.243Z,99.90
2018-04-07T22:00:34.517Z,99.90
2018-04-07T22:03:02.612Z,99.90
2018-04-07T22:05:31.546Z,99.90
2018-04-07T22:07:59.668Z,99.90
2018-04-07T22:10:27.804Z,99.90
2018-04-07T22:12:55.900Z,99.90
2018-04-07T22:15:23.999Z,99.90
2018-04-07T22:17:52.872Z,99.90
2018-04-07T22:20:20.969Z,99.90
2018-04-07T22:22:49.994Z,99.90
2018-04-07T22:25:18.075Z,99.90
2018-04-07T22:27:46.194Z,99.90
2018-04-07T22:30:15.078Z,99.90
2018-04-07T22:32:43.195Z,99.90
2018-04-07T22:35:12.291Z,99.90
2018-04-07T22:37:40.408Z,99.90
2018-04-07T22:40:09.175Z,99.90
2018-04-07T22:42:37.276Z,99.90
2018-04-07T22:45:06.594Z,99.90
2018-04-07T22:47:35.466Z,99.90
2018-04-07T22:50:04.310Z,99.90
2018-04-07T22:52:32.407Z,99.90
2018-04-07T22:55:00.522Z,99.90
2018-04-07T22:57:29.363Z,99.90
2018-04-07T22:59:58.728Z,99.90
2018-04-07T23:02:26.830Z,99.90
2018-04-07T23:04:55.256Z,99.90
2018-04-07T23:07:24.123Z,99.90
2018-04-07T23:09:52.219Z,99.90
2018-04-07T23:12:21.092Z,99.90
2018-04-07T23:14:49.232Z,99.90
2018-04-07T23:17:17.644Z,99.90
2018-04-07T23:19:45.723Z,99.90
2018-04-07T23:22:13.806Z,99.90
2018-04-07T23:24:41.918Z,99.90
2018-04-07T23:27:10.024Z,99.90
2018-04-07T23:29:38.115Z,99.90
2018-04-07T23:32:06.226Z,99.90
2018-04-07T23:34:34.311Z,99.90
2018-04-07T23:37:02.402Z,99.90
2018-04-07T23:39:32.864Z,99.90
2018-04-07T23:42:02.244Z,99.90
2018-04-07T23:44:30.334Z,99.90
2018-04-07T23:46:58.404Z,99.90
2018-04-07T23:49:26.825Z,99.90
2018-04-07T23:51:54.958Z,99.90
2018-04-07T23:54:23.061Z,99.90
2018-04-07T23:56:51.400Z,99.90
2018-04-07T23:59:19.491Z,99.90
